createdAt,value
2022-12-14T00:01:37.752Z,13.94
2022-12-14T00:04:04.581Z,13.91
2022-12-14T00:06:33.569Z,13.95
2022-12-14T00:09:03.711Z,13.95
2022-12-14T00:11:31.903Z,13.99
2022-12-14T00:14:01.120Z,14.03
2022-12-14T00:16:30.155Z,14.07
2022-12-14T00:18:58.702Z,14.09
2022-12-14T00:21:26.713Z,14.15
2022-12-14T00:23:54.457Z,14.10
2022-12-14T00:26:26.958Z,14.17
2022-12-14T00:28:55.250Z,14.14
2022-12-14T00:31:22.987Z,14.18
2022-12-14T00:33:50.535Z,14.20
2022-12-14T00:36:17.683Z,14.20
2022-12-14T00:38:44.912Z,14.22
2022-12-14T00:41:11.903Z,14.22
2022-12-14T00:43:38.695Z,14.17
2022-12-14T00:46:06.009Z,14.18
2022-12-14T00:48:33.362Z,14.18
2022-12-14T00:51:00.362Z,14.19
2022-12-14T00:53:27.109Z,14.19
2022-12-14T00:55:53.818Z,14.09
2022-12-14T00:58:22.821Z,13.95
2022-12-14T01:01:00.214Z,13.91
2022-12-14T01:03:27.577Z,13.98
2022-12-14T01:05:54.625Z,14.01
2022-12-14T01:08:21.487Z,14.08
2022-12-14T01:10:49.836Z,13.83
2022-12-14T01:13:16.563Z,13.64
2022-12-14T01:15:43.231Z,13.61
2022-12-14T01:18:09.923Z,13.77
2022-12-14T01:20:36.545Z,13.84
2022-12-14T01:23:03.224Z,13.79
2022-12-14T01:25:29.921Z,13.71
2022-12-14T01:27:56.648Z,13.80
2022-12-14T01:30:23.348Z,13.71
2022-12-14T01:32:50.051Z,13.63
2022-12-14T01:35:17.327Z,13.61
2022-12-14T01:37:44.186Z,13.63
2022-12-14T01:40:11.271Z,13.69
2022-12-14T01:42:38.273Z,13.74
2022-12-14T01:45:06.370Z,13.76
2022-12-14T01:47:43.847Z,13.65
2022-12-14T01:50:30.776Z,13.72
2022-12-14T01:53:02.115Z,13.76
2022-12-14T01:55:34.181Z,13.73
2022-12-14T01:58:00.768Z,13.63
2022-12-14T02:00:27.591Z,13.71
2022-12-14T02:03:06.757Z,13.68
2022-12-14T02:05:37.679Z,13.64
2022-12-14T02:08:06.684Z,13.49
2022-12-14T02:10:34.224Z,13.44
2022-12-14T02:13:11.978Z,13.53
2022-12-14T02:15:39.475Z,13.60
2022-12-14T02:18:11.571Z,13.62
2022-12-14T02:21:08.835Z,13.61
2022-12-14T02:24:17.377Z,13.55
2022-12-14T02:26:58.182Z,13.51
2022-12-14T02:29:40.148Z,13.54
2022-12-14T02:32:34.836Z,13.55
2022-12-14T02:35:10.539Z,13.55
2022-12-14T02:38:09.108Z,13.47
2022-12-14T02:40:51.588Z,13.43
2022-12-14T02:43:24.260Z,13.36
2022-12-14T02:46:05.744Z,13.34
2022-12-14T02:48:48.641Z,13.40
2022-12-14T02:51:22.688Z,13.29
2022-12-14T02:54:00.712Z,13.25
2022-12-14T02:56:36.971Z,13.31
2022-12-14T02:59:08.170Z,13.40
2022-12-14T03:01:37.888Z,13.40
2022-12-14T03:04:04.992Z,13.45
2022-12-14T03:06:31.775Z,13.42
2022-12-14T03:09:02.634Z,13.48
2022-12-14T03:11:44.364Z,13.36
2022-12-14T03:14:17.337Z,13.26
2022-12-14T03:16:48.156Z,13.25
2022-12-14T03:19:26.499Z,13.26
2022-12-14T03:22:03.882Z,13.25
2022-12-14T03:24:39.019Z,13.24
2022-12-14T03:27:18.175Z,13.27
2022-12-14T03:29:53.943Z,13.25
2022-12-14T03:32:24.118Z,13.36
2022-12-14T03:35:02.429Z,13.36
2022-12-14T03:37:40.070Z,13.44
2022-12-14T03:40:10.787Z,13.50
2022-12-14T03:42:59.083Z,13.40
2022-12-14T03:45:44.265Z,13.43
2022-12-14T03:48:25.980Z,13.44
2022-12-14T03:51:00.118Z,13.28
2022-12-14T03:53:48.013Z,13.44
2022-12-14T03:56:14.745Z,13.50
2022-12-14T03:59:08.442Z,13.60
2022-12-14T04:01:56.273Z,13.62
2022-12-14T04:04:49.525Z,13.69
2022-12-14T04:07:22.269Z,13.71
2022-12-14T04:10:31.792Z,13.73
2022-12-14T04:13:31.383Z,13.76
2022-12-14T04:16:23.561Z,13.77
2022-12-14T04:19:00.420Z,13.69
2022-12-14T04:21:42.662Z,13.77
2022-12-14T04:24:51.929Z,13.79
2022-12-14T04:27:46.525Z,13.74
2022-12-14T04:30:14.425Z,13.78
2022-12-14T04:32:51.714Z,13.81
2022-12-14T04:35:24.687Z,13.79
2022-12-14T04:37:57.649Z,13.79
2022-12-14T04:40:40.871Z,13.62
2022-12-14T04:43:17.487Z,13.54
2022-12-14T04:45:52.144Z,13.59
2022-12-14T04:48:23.746Z,13.70
2022-12-14T04:51:00.048Z,13.75
2022-12-14T04:53:31.152Z,13.78
2022-12-14T04:56:08.740Z,13.77
2022-12-14T04:58:36.426Z,13.70
2022-12-14T05:01:31.215Z,13.61
2022-12-14T05:04:12.538Z,13.56
2022-12-14T05:06:48.465Z,13.46
2022-12-14T05:09:46.433Z,13.43
2022-12-14T05:12:21.901Z,13.52
2022-12-14T05:14:54.744Z,13.58
2022-12-14T05:17:21.528Z,13.63
2022-12-14T05:19:50.336Z,13.68
2022-12-14T05:22:18.279Z,13.69
2022-12-14T05:24:44.928Z,13.72
2022-12-14T05:27:11.607Z,13.74
2022-12-14T05:29:38.290Z,13.78
2022-12-14T05:32:05.050Z,13.79
2022-12-14T05:34:32.074Z,13.79
2022-12-14T05:36:58.819Z,13.79
2022-12-14T05:39:25.439Z,13.77
2022-12-14T05:41:53.435Z,13.76
2022-12-14T05:44:20.623Z,13.73
2022-12-14T05:46:47.560Z,13.74
2022-12-14T05:49:14.269Z,13.74
2022-12-14T05:51:40.951Z,13.76
2022-12-14T05:54:07.652Z,13.70
2022-12-14T05:56:34.343Z,13.77
2022-12-14T05:59:02.511Z,13.76
2022-12-14T06:01:29.287Z,13.77
2022-12-14T06:03:56.077Z,13.72
2022-12-14T06:06:22.748Z,13.77
2022-12-14T06:08:49.508Z,13.79
2022-12-14T06:11:21.276Z,13.81
2022-12-14T06:13:48.840Z,13.68
2022-12-14T06:16:21.534Z,13.73
2022-12-14T06:18:50.401Z,13.76
2022-12-14T06:21:19.388Z,13.81
2022-12-14T06:23:46.644Z,13.79
2022-12-14T06:26:14.942Z,13.84
2022-12-14T06:28:41.981Z,13.88
2022-12-14T06:31:15.704Z,13.92
2022-12-14T06:33:42.981Z,14.00
2022-12-14T06:36:23.653Z,13.93
2022-12-14T06:38:54.396Z,13.94
2022-12-14T06:41:22.301Z,14.00
2022-12-14T06:43:49.418Z,14.06
2022-12-14T06:46:19.679Z,14.05
2022-12-14T06:48:54.759Z,14.06
2022-12-14T06:51:23.333Z,14.00
2022-12-14T06:53:52.038Z,14.01
2022-12-14T06:56:20.436Z,14.00
2022-12-14T06:58:47.504Z,14.00
2022-12-14T07:01:22.381Z,14.06
2022-12-14T07:03:54.849Z,13.96
2022-12-14T07:06:23.043Z,13.96
2022-12-14T07:08:53.440Z,13.96
2022-12-14T07:11:20.538Z,14.00
2022-12-14T07:13:48.971Z,14.01
2022-12-14T07:16:21.853Z,14.04
2022-12-14T07:18:49.554Z,14.08
2022-12-14T07:21:18.920Z,13.96
2022-12-14T07:23:47.510Z,13.93
2022-12-14T07:26:17.470Z,13.86
2022-12-14T07:28:45.381Z,13.86
2022-12-14T07:31:15.371Z,13.78
2022-12-14T07:33:42.867Z,13.78
2022-12-14T07:36:15.868Z,13.75
2022-12-14T07:38:43.771Z,13.65
2022-12-14T07:41:20.544Z,13.70
2022-12-14T07:43:49.814Z,13.80
2022-12-14T07:46:22.265Z,13.79
2022-12-14T07:48:50.016Z,13.81
2022-12-14T07:51:19.022Z,13.95
2022-12-14T07:53:46.664Z,14.08
2022-12-14T07:56:15.951Z,14.19
2022-12-14T07:58:43.060Z,14.26
2022-12-14T08:01:12.698Z,14.30
2022-12-14T08:03:42.108Z,14.40
2022-12-14T08:06:11.677Z,14.52
2022-12-14T08:08:39.297Z,14.67
2022-12-14T08:11:07.177Z,14.80
2022-12-14T08:13:34.323Z,14.91
2022-12-14T08:16:13.574Z,15.02
2022-12-14T08:18:41.764Z,15.11
2022-12-14T08:21:10.788Z,15.11
2022-12-14T08:23:37.908Z,15.18
2022-12-14T08:26:06.109Z,15.30
2022-12-14T08:28:35.978Z,15.40
2022-12-14T08:31:08.871Z,15.50
2022-12-14T08:33:37.370Z,15.59
2022-12-14T08:36:09.653Z,15.71
2022-12-14T08:38:37.541Z,15.75
2022-12-14T08:41:09.858Z,15.82
2022-12-14T08:43:36.909Z,15.89
2022-12-14T08:46:04.803Z,15.93
2022-12-14T08:48:31.814Z,16.06
2022-12-14T08:51:06.656Z,16.15
2022-12-14T08:53:34.002Z,16.25
2022-12-14T08:56:10.514Z,16.33
2022-12-14T08:58:39.211Z,16.34
2022-12-14T09:01:15.119Z,16.40
2022-12-14T09:03:47.251Z,16.52
2022-12-14T09:06:22.037Z,16.60
2022-12-14T09:08:49.923Z,16.66
2022-12-14T09:11:19.045Z,16.58
2022-12-14T09:13:46.706Z,16.74
2022-12-14T09:16:19.329Z,16.80
2022-12-14T09:18:47.235Z,16.86
2022-12-14T09:21:14.687Z,16.93
2022-12-14T09:23:42.294Z,17.03
2022-12-14T09:26:12.846Z,17.01
2022-12-14T09:28:42.441Z,16.97
2022-12-14T09:31:14.317Z,17.15
2022-12-14T09:33:41.228Z,17.17
2022-12-14T09:36:17.424Z,17.25
2022-12-14T09:38:51.179Z,17.33
2022-12-14T09:41:45.451Z,17.39
2022-12-14T09:44:43.508Z,17.45
2022-12-14T09:47:19.239Z,17.51
2022-12-14T09:49:54.331Z,17.60
2022-12-14T09:52:44.440Z,17.71
2022-12-14T09:55:41.255Z,17.85
2022-12-14T09:58:20.262Z,17.98
2022-12-14T10:01:02.101Z,18.08
2022-12-14T10:03:32.066Z,18.01
2022-12-14T10:06:11.173Z,18.04
2022-12-14T10:08:54.879Z,18.20
2022-12-14T10:11:50.778Z,18.36
2022-12-14T10:14:44.441Z,18.49
2022-12-14T10:17:26.444Z,18.62
2022-12-14T10:19:55.638Z,18.72
2022-12-14T10:22:35.846Z,18.78
2022-12-14T10:25:13.994Z,18.84
2022-12-14T10:28:09.840Z,18.81
2022-12-14T10:30:34.764Z,18.85
2022-12-14T10:33:13.590Z,18.85
2022-12-14T10:36:11.972Z,18.79
2022-12-14T10:39:13.855Z,18.78
2022-12-14T10:42:01.367Z,18.58
2022-12-14T10:48:06.264Z,18.52
2022-12-14T10:51:15.697Z,18.48
2022-12-14T10:53:51.694Z,18.39
2022-12-14T10:56:32.387Z,18.32
2022-12-14T10:59:17.298Z,18.24
2022-12-14T11:01:46.480Z,18.11
2022-12-14T11:04:29.774Z,18.13
2022-12-14T11:07:02.044Z,18.03
2022-12-14T11:09:29.528Z,18.04
2022-12-14T11:12:03.403Z,18.05
2022-12-14T11:14:30.284Z,18.04
2022-12-14T11:16:57.009Z,18.05
2022-12-14T11:19:26.056Z,18.04
2022-12-14T11:22:09.693Z,18.09
2022-12-14T11:24:45.499Z,18.16
2022-12-14T11:27:16.906Z,18.17
2022-12-14T11:29:47.249Z,18.22
2022-12-14T11:32:25.462Z,18.28
2022-12-14T11:34:56.956Z,18.34
2022-12-14T11:37:34.697Z,18.35
2022-12-14T11:40:04.819Z,18.41
2022-12-14T11:42:32.222Z,18.35
2022-12-14T11:45:28.583Z,18.42
2022-12-14T11:48:15.536Z,18.44
2022-12-14T11:50:43.877Z,18.45
2022-12-14T11:53:16.119Z,18.47
2022-12-14T11:55:52.783Z,18.50
2022-12-14T11:58:28.031Z,18.50
2022-12-14T12:01:02.368Z,18.36
2022-12-14T12:03:33.181Z,18.25
2022-12-14T12:06:24.703Z,18.29
2022-12-14T12:08:57.096Z,18.25
2022-12-14T12:11:30.731Z,18.16
2022-12-14T12:14:24.564Z,18.14
2022-12-14T12:16:53.171Z,18.12
2022-12-14T12:19:28.843Z,18.14
2022-12-14T12:21:59.635Z,18.01
2022-12-14T12:25:00.962Z,18.00
2022-12-14T12:27:27.552Z,18.07
2022-12-14T12:29:57.156Z,17.98
2022-12-14T12:32:27.514Z,17.90
2022-12-14T12:35:18.812Z,17.94
2022-12-14T12:37:48.483Z,17.93
2022-12-14T12:40:29.264Z,18.00
2022-12-14T12:43:11.281Z,17.84
2022-12-14T12:45:44.578Z,17.83
2022-12-14T12:48:21.392Z,17.88
2022-12-14T12:50:56.715Z,17.88
2022-12-14T12:53:39.109Z,17.89
2022-12-14T12:56:15.823Z,17.94
2022-12-14T12:58:52.118Z,17.91
2022-12-14T13:01:22.906Z,17.87
2022-12-14T13:03:53.648Z,17.73
2022-12-14T13:06:40.562Z,17.74
2022-12-14T13:09:19.372Z,17.76
2022-12-14T13:11:47.324Z,17.73
2022-12-14T13:14:27.833Z,17.69
2022-12-14T13:16:55.374Z,17.72
2022-12-14T13:19:50.750Z,17.73
2022-12-14T13:22:29.703Z,17.68
2022-12-14T13:25:00.271Z,17.71
2022-12-14T13:27:32.801Z,17.68
2022-12-14T13:30:21.840Z,17.56
2022-12-14T13:33:06.629Z,17.60
2022-12-14T13:35:42.164Z,17.61
2022-12-14T13:38:20.853Z,17.64
2022-12-14T13:40:56.632Z,17.67
2022-12-14T13:43:39.925Z,17.64
2022-12-14T13:46:29.200Z,17.55
2022-12-14T13:49:03.023Z,17.49
2022-12-14T13:51:32.731Z,17.51
2022-12-14T13:54:03.019Z,17.49
2022-12-14T13:56:33.814Z,17.50
2022-12-14T13:59:05.001Z,17.45
2022-12-14T14:01:47.066Z,17.47
2022-12-14T14:04:14.241Z,17.37
2022-12-14T14:06:46.532Z,17.30
2022-12-14T14:09:31.293Z,17.24
2022-12-14T14:12:35.127Z,17.19
2022-12-14T14:15:27.326Z,17.12
2022-12-14T14:17:55.210Z,17.17
2022-12-14T14:20:43.051Z,17.09
2022-12-14T14:23:16.032Z,17.12
2022-12-14T14:26:39.852Z,17.08
2022-12-14T14:29:23.014Z,16.96
2022-12-14T14:31:56.875Z,16.96
2022-12-14T14:34:25.198Z,16.91
2022-12-14T14:36:52.616Z,16.94
2022-12-14T14:42:27.499Z,17.08
2022-12-14T14:45:01.717Z,17.03
2022-12-14T14:47:33.540Z,17.03
2022-12-14T14:50:15.165Z,16.98
2022-12-14T14:52:41.803Z,16.95
2022-12-14T14:58:23.437Z,16.83
2022-12-14T15:00:59.484Z,16.78
2022-12-14T15:03:34.267Z,16.76
2022-12-14T15:06:01.322Z,16.73
2022-12-14T15:08:34.223Z,16.64
2022-12-14T15:11:05.375Z,16.59
2022-12-14T15:13:51.479Z,16.58
2022-12-14T15:16:33.608Z,16.54
2022-12-14T15:19:18.783Z,16.46
2022-12-14T15:21:45.887Z,16.43
2022-12-14T15:24:13.824Z,16.40
2022-12-14T15:26:40.645Z,16.38
2022-12-14T15:29:17.498Z,16.41
2022-12-14T15:31:45.479Z,16.33
2022-12-14T15:34:20.640Z,16.30
2022-12-14T15:36:48.234Z,16.35
2022-12-14T15:39:34.057Z,16.32
2022-12-14T15:42:11.436Z,16.37
2022-12-14T15:44:40.242Z,16.25
2022-12-14T15:47:07.858Z,16.22
2022-12-14T15:49:34.523Z,16.13
2022-12-14T15:52:02.716Z,16.12
2022-12-14T15:54:29.447Z,16.09
2022-12-14T15:57:00.174Z,16.03
2022-12-14T15:59:35.902Z,16.11
2022-12-14T16:02:15.049Z,16.11
2022-12-14T16:04:42.606Z,16.12
2022-12-14T16:07:23.811Z,16.10
2022-12-14T16:09:57.053Z,16.08
2022-12-14T16:12:45.508Z,16.11
2022-12-14T16:15:38.588Z,16.05
2022-12-14T16:18:05.533Z,16.03
2022-12-14T16:20:35.933Z,16.08
2022-12-14T16:23:07.143Z,16.06
2022-12-14T16:25:36.042Z,16.11
2022-12-14T16:28:38.248Z,16.14
2022-12-14T16:31:14.434Z,16.08
2022-12-14T16:33:42.813Z,16.08
2022-12-14T16:36:18.319Z,16.10
2022-12-14T16:39:20.879Z,16.08
2022-12-14T16:42:00.687Z,16.06
2022-12-14T16:44:33.192Z,15.95
2022-12-14T16:47:22.605Z,15.96
2022-12-14T16:50:00.150Z,15.98
2022-12-14T16:52:45.083Z,15.99
2022-12-14T16:55:20.241Z,15.95
2022-12-14T16:57:54.199Z,15.99
2022-12-14T17:00:29.566Z,15.99
2022-12-14T17:03:24.562Z,16.02
2022-12-14T17:05:55.534Z,15.85
2022-12-14T17:08:22.564Z,15.61
2022-12-14T17:10:49.313Z,15.62
2022-12-14T17:13:16.191Z,15.65
2022-12-14T17:16:04.567Z,15.71
2022-12-14T17:18:39.173Z,15.63
2022-12-14T17:21:07.466Z,15.70
2022-12-14T17:23:39.958Z,15.74
2022-12-14T17:26:06.708Z,15.78
2022-12-14T17:28:34.679Z,15.73
2022-12-14T17:31:03.159Z,15.68
2022-12-14T17:33:31.798Z,15.65
2022-12-14T17:35:59.265Z,15.61
2022-12-14T17:38:26.299Z,15.68
2022-12-14T17:40:56.799Z,15.68
2022-12-14T17:43:27.827Z,15.69
2022-12-14T17:45:55.801Z,15.68
2022-12-14T17:48:22.767Z,15.67
2022-12-14T17:50:50.439Z,15.69
2022-12-14T17:53:23.407Z,15.70
2022-12-14T17:55:50.414Z,15.70
2022-12-14T17:58:17.192Z,15.68
2022-12-14T18:01:00.123Z,15.68
2022-12-14T18:03:30.279Z,15.61
2022-12-14T18:05:58.659Z,15.47
2022-12-14T18:08:26.779Z,15.48
2022-12-14T18:10:59.976Z,15.41
2022-12-14T18:13:28.617Z,15.36
2022-12-14T18:15:55.773Z,15.33
2022-12-14T18:18:25.638Z,15.38
2022-12-14T18:20:54.898Z,15.38
2022-12-14T18:23:22.952Z,15.42
2022-12-14T18:25:55.803Z,15.40
2022-12-14T18:28:22.712Z,15.30
2022-12-14T18:30:55.748Z,15.37
2022-12-14T18:33:25.543Z,15.40
2022-12-14T18:35:54.123Z,15.43
2022-12-14T18:38:21.132Z,15.43
2022-12-14T18:40:50.427Z,15.40
2022-12-14T18:43:20.102Z,15.39
2022-12-14T18:45:48.314Z,15.35
2022-12-14T18:48:15.391Z,15.32
2022-12-14T18:50:43.244Z,15.24
2022-12-14T18:53:15.003Z,15.19
2022-12-14T18:55:42.711Z,15.11
2022-12-14T18:58:18.693Z,15.10
2022-12-14T19:00:45.852Z,15.16
2022-12-14T19:03:12.926Z,15.10
2022-12-14T19:05:40.755Z,15.12
2022-12-14T19:08:10.231Z,15.15
2022-12-14T19:10:39.751Z,15.15
2022-12-14T19:13:06.625Z,15.13
2022-12-14T19:15:35.392Z,15.11
2022-12-14T19:18:02.212Z,15.12
2022-12-14T19:20:29.737Z,15.12
2022-12-14T19:22:56.621Z,14.97
2022-12-14T19:25:24.014Z,14.95
2022-12-14T19:30:39.887Z,14.97
2022-12-14T19:33:06.587Z,14.95
2022-12-14T19:35:33.296Z,14.88
2022-12-14T19:38:00.034Z,14.87
2022-12-14T19:40:26.758Z,14.90
2022-12-14T19:42:53.499Z,14.88
2022-12-14T19:45:20.355Z,14.80
2022-12-14T19:47:47.087Z,14.79
2022-12-14T19:50:14.977Z,14.84
2022-12-14T19:52:43.189Z,14.79
2022-12-14T19:55:11.346Z,14.85
2022-12-14T19:57:39.442Z,14.82
2022-12-14T20:00:08.190Z,14.81
2022-12-14T20:02:38.232Z,14.72
2022-12-14T20:05:05.954Z,14.78
2022-12-14T20:07:32.634Z,14.79
2022-12-14T20:09:59.300Z,14.84
2022-12-14T20:12:25.956Z,14.75
2022-12-14T20:14:52.698Z,14.72
2022-12-14T20:17:19.393Z,14.74
2022-12-14T20:19:46.255Z,14.68
2022-12-14T20:22:14.883Z,14.66
2022-12-14T20:24:42.778Z,14.58
2022-12-14T20:27:09.365Z,14.59
2022-12-14T20:29:37.262Z,14.39
2022-12-14T20:32:04.255Z,14.31
2022-12-14T20:34:30.978Z,14.21
2022-12-14T20:36:57.738Z,14.28
2022-12-14T20:39:24.503Z,14.19
2022-12-14T20:41:51.319Z,14.18
2022-12-14T20:44:18.123Z,14.13
2022-12-14T20:46:46.450Z,14.05
2022-12-14T20:49:15.969Z,14.09
2022-12-14T20:51:43.965Z,14.02
2022-12-14T20:54:14.094Z,14.06
2022-12-14T20:56:41.171Z,14.00
2022-12-14T20:59:09.051Z,13.96
2022-12-14T21:01:38.336Z,14.02
2022-12-14T21:04:06.374Z,14.01
2022-12-14T21:06:33.454Z,13.98
2022-12-14T21:09:06.520Z,13.94
2022-12-14T21:12:00.806Z,13.95
2022-12-14T21:14:33.214Z,13.74
2022-12-14T21:17:01.233Z,13.88
2022-12-14T21:19:28.431Z,13.93
2022-12-14T21:21:55.390Z,13.96
2022-12-14T21:25:01.052Z,13.75
2022-12-14T21:27:23.041Z,13.84
2022-12-14T21:29:50.434Z,13.89
2022-12-14T21:32:18.472Z,13.92
2022-12-14T21:34:45.983Z,13.79
2022-12-14T21:37:13.416Z,13.82
2022-12-14T21:39:40.391Z,13.63
2022-12-14T21:42:13.908Z,13.55
2022-12-14T21:44:45.801Z,13.54
2022-12-14T21:47:22.191Z,13.36
2022-12-14T21:49:49.286Z,13.42
2022-12-14T21:52:19.146Z,13.49
2022-12-14T21:54:46.342Z,13.53
2022-12-14T21:57:37.617Z,13.54
2022-12-14T22:00:06.348Z,13.49
2022-12-14T22:02:40.060Z,13.52
2022-12-14T22:05:07.297Z,13.45
2022-12-14T22:07:34.412Z,13.56
2022-12-14T22:10:01.230Z,13.62
2022-12-14T22:12:28.342Z,13.67
2022-12-14T22:14:55.123Z,13.60
2022-12-14T22:17:21.821Z,13.66
2022-12-14T22:19:50.942Z,13.60
2022-12-14T22:22:17.719Z,13.59
2022-12-14T22:24:45.056Z,13.58
2022-12-14T22:27:12.864Z,13.58
2022-12-14T22:29:40.211Z,13.49
2022-12-14T22:32:07.479Z,13.42
2022-12-14T22:34:34.707Z,13.35
2022-12-14T22:37:01.746Z,13.44
2022-12-14T22:39:28.879Z,13.42
2022-12-14T22:41:55.540Z,13.47
2022-12-14T22:44:22.216Z,13.58
2022-12-14T22:46:49.928Z,13.58
2022-12-14T22:49:18.380Z,13.62
2022-12-14T22:51:45.668Z,13.63
2022-12-14T22:54:20.877Z,13.62
2022-12-14T22:56:56.834Z,13.52
2022-12-14T22:59:33.697Z,13.45
2022-12-14T23:02:00.674Z,13.50
2022-12-14T23:06:54.849Z,13.61
2022-12-14T23:09:40.493Z,13.72
2022-12-14T23:12:26.222Z,13.78
2022-12-14T23:15:11.193Z,13.68
2022-12-14T23:17:56.507Z,13.67
2022-12-14T23:20:41.512Z,13.66
2022-12-14T23:23:28.149Z,13.65
2022-12-14T23:26:14.322Z,13.63
2022-12-14T23:28:59.863Z,13.64
2022-12-14T23:31:45.178Z,13.66
2022-12-14T23:34:30.712Z,13.49
2022-12-14T23:37:20.202Z,13.53
2022-12-14T23:40:06.688Z,13.47
2022-12-14T23:42:51.843Z,13.36
2022-12-14T23:45:37.036Z,13.41
2022-12-14T23:48:22.246Z,13.48
2022-12-14T23:51:07.534Z,13.42
2022-12-14T23:53:52.715Z,13.44
2022-12-14T23:56:37.888Z,13.43
2022-12-14T23:59:28.017Z,13.44
